createdAt,value
2023-02-20T00:01:04.740Z,5.20
2023-02-20T00:03:31.768Z,1.87
2023-02-20T00:05:58.760Z,2.13
2023-02-20T00:08:25.750Z,5.70
2023-02-20T00:10:52.782Z,4.23
2023-02-20T00:13:19.644Z,2.17
2023-02-20T00:15:46.730Z,1.80
2023-02-20T00:18:14.433Z,2.23
2023-02-20T00:20:41.464Z,3.83
2023-02-20T00:23:08.370Z,2.00
2023-02-20T00:25:35.349Z,3.30
2023-02-20T00:28:02.745Z,2.40
2023-02-20T00:30:29.818Z,2.00
2023-02-20T00:32:58.656Z,2.60
2023-02-20T00:35:27.089Z,2.03
2023-02-20T00:37:55.893Z,2.33
2023-02-20T00:40:25.641Z,2.57
2023-02-20T00:42:52.755Z,2.47
2023-02-20T00:45:20.328Z,1.80
2023-02-20T00:47:47.505Z,3.13
2023-02-20T00:50:17.568Z,2.67
2023-02-20T00:52:44.506Z,2.40
2023-02-20T00:55:11.945Z,2.97
2023-02-20T00:57:39.006Z,3.60
2023-02-20T01:00:09.327Z,2.50
2023-02-20T01:02:36.254Z,2.20
2023-02-20T01:05:03.904Z,2.37
2023-02-20T01:07:30.864Z,3.00
2023-02-20T01:09:57.803Z,2.17
2023-02-20T01:12:24.807Z,2.13
2023-02-20T01:14:51.843Z,2.60
2023-02-20T01:17:18.822Z,2.87
2023-02-20T01:19:45.876Z,2.37
2023-02-20T01:22:12.779Z,2.10
2023-02-20T01:24:39.794Z,2.23
2023-02-20T01:27:06.914Z,8.10
2023-02-20T01:29:33.812Z,4.73
2023-02-20T01:32:01.138Z,3.90
2023-02-20T01:34:28.243Z,1.50
2023-02-20T01:36:56.443Z,6.07
2023-02-20T01:39:27.636Z,2.83
2023-02-20T01:42:02.124Z,2.33
2023-02-20T01:44:37.389Z,2.30
2023-02-20T01:47:10.117Z,4.33
2023-02-20T01:50:09.500Z,3.53
2023-02-20T01:52:39.267Z,3.20
2023-02-20T01:55:12.516Z,2.73
2023-02-20T01:57:48.910Z,2.87
2023-02-20T02:00:20.775Z,2.90
2023-02-20T02:03:01.072Z,2.63
2023-02-20T02:05:30.872Z,2.30
2023-02-20T02:08:00.292Z,3.03
2023-02-20T02:10:40.011Z,2.40
2023-02-20T02:13:07.292Z,3.10
2023-02-20T02:15:34.246Z,3.23
2023-02-20T02:18:27.747Z,3.20
2023-02-20T02:21:09.453Z,2.93
2023-02-20T02:24:05.243Z,3.43
2023-02-20T02:27:23.414Z,4.80
2023-02-20T02:30:40.753Z,3.40
2023-02-20T02:33:45.738Z,3.27
2023-02-20T02:37:05.309Z,4.37
2023-02-20T02:39:40.195Z,3.93
2023-02-20T02:42:40.669Z,4.00
2023-02-20T02:45:47.684Z,3.23
2023-02-20T02:48:41.357Z,4.27
2023-02-20T02:51:21.152Z,3.63
2023-02-20T02:54:07.721Z,3.60
2023-02-20T02:56:46.111Z,6.47
2023-02-20T02:59:21.300Z,3.93
2023-02-20T03:01:55.780Z,5.37
2023-02-20T03:04:26.031Z,4.73
2023-02-20T03:06:59.910Z,4.00
2023-02-20T03:09:33.609Z,2.80
2023-02-20T03:12:03.329Z,3.60
2023-02-20T03:15:12.079Z,3.27
2023-02-20T03:18:11.007Z,4.90
2023-02-20T03:20:48.994Z,3.60
2023-02-20T03:23:26.613Z,5.20
2023-02-20T03:26:03.734Z,3.80
2023-02-20T03:28:41.965Z,3.00
2023-02-20T03:31:23.985Z,2.97
2023-02-20T03:34:27.461Z,3.00
2023-02-20T03:37:21.913Z,3.27
2023-02-20T03:40:14.201Z,3.47
2023-02-20T03:43:05.952Z,3.10
2023-02-20T03:45:37.307Z,3.10
2023-02-20T03:48:13.588Z,3.17
2023-02-20T03:50:41.271Z,6.73
2023-02-20T03:53:08.188Z,5.23
2023-02-20T03:55:35.354Z,3.10
2023-02-20T03:58:08.850Z,3.30
2023-02-20T04:00:43.381Z,4.33
2023-02-20T04:03:26.988Z,2.83
2023-02-20T04:05:57.898Z,3.43
2023-02-20T04:08:49.558Z,4.17
2023-02-20T04:11:18.618Z,4.27
2023-02-20T04:13:48.857Z,3.23
2023-02-20T04:16:16.734Z,3.77
2023-02-20T04:18:43.792Z,5.30
2023-02-20T04:21:27.002Z,3.80
2023-02-20T04:24:13.790Z,7.30
2023-02-20T04:26:41.402Z,3.57
2023-02-20T04:29:08.790Z,4.93
2023-02-20T04:31:35.925Z,3.40
2023-02-20T04:34:02.972Z,6.07
2023-02-20T04:36:30.441Z,6.50
2023-02-20T04:38:57.626Z,3.40
2023-02-20T04:41:24.553Z,3.60
2023-02-20T04:44:11.601Z,3.60
2023-02-20T04:46:39.230Z,3.00
2023-02-20T04:49:06.219Z,4.00
2023-02-20T04:51:33.149Z,3.97
2023-02-20T04:54:00.139Z,6.23
2023-02-20T04:56:27.091Z,4.17
2023-02-20T04:58:54.087Z,2.87
2023-02-20T05:01:21.045Z,3.40
2023-02-20T05:03:48.071Z,4.10
2023-02-20T05:06:14.966Z,3.33
2023-02-20T05:08:41.885Z,2.23
2023-02-20T05:11:08.782Z,2.90
2023-02-20T05:13:35.768Z,4.83
2023-02-20T05:16:02.898Z,3.00
2023-02-20T05:18:30.989Z,3.40
2023-02-20T05:21:17.305Z,2.43
2023-02-20T05:23:47.853Z,6.30
2023-02-20T05:26:21.351Z,3.03
2023-02-20T05:28:48.359Z,3.03
2023-02-20T05:31:17.596Z,4.13
2023-02-20T05:33:45.249Z,4.03
2023-02-20T05:36:12.414Z,3.60
2023-02-20T05:38:41.661Z,5.90
2023-02-20T05:41:08.841Z,6.27
2023-02-20T05:43:35.782Z,4.20
2023-02-20T05:46:02.697Z,3.80
2023-02-20T05:48:29.578Z,4.73
2023-02-20T05:50:57.395Z,6.40
2023-02-20T05:53:27.185Z,3.57
2023-02-20T05:55:54.270Z,4.77
2023-02-20T05:58:21.362Z,2.70
2023-02-20T06:00:48.333Z,2.63
2023-02-20T06:03:16.389Z,2.60
2023-02-20T06:05:44.168Z,3.13
2023-02-20T06:08:11.402Z,2.77
2023-02-20T06:10:38.451Z,3.93
2023-02-20T06:13:05.391Z,2.70
2023-02-20T06:15:32.410Z,3.40
2023-02-20T06:17:59.360Z,2.33
2023-02-20T06:20:26.302Z,2.80
2023-02-20T06:22:53.344Z,2.53
2023-02-20T06:25:20.300Z,4.30
2023-02-20T06:27:47.158Z,5.30
2023-02-20T06:30:14.541Z,3.83
2023-02-20T06:32:41.548Z,4.03
2023-02-20T06:35:09.074Z,5.40
2023-02-20T06:37:36.160Z,5.70
2023-02-20T06:40:06.206Z,3.97
2023-02-20T06:42:33.190Z,3.33
2023-02-20T06:45:00.135Z,7.33
2023-02-20T06:47:27.064Z,3.60
2023-02-20T06:49:53.988Z,5.40
2023-02-20T06:52:20.926Z,3.83
2023-02-20T06:54:47.827Z,3.47
2023-02-20T06:57:15.613Z,3.13
2023-02-20T06:59:48.021Z,2.77
2023-02-20T07:02:16.786Z,3.40
2023-02-20T07:04:48.315Z,4.80
2023-02-20T07:07:15.373Z,3.50
2023-02-20T07:09:44.491Z,3.93
2023-02-20T07:12:12.045Z,3.43
2023-02-20T07:14:39.005Z,7.07
2023-02-20T07:17:05.922Z,9.23
2023-02-20T07:19:32.857Z,3.50
2023-02-20T07:21:59.787Z,4.80
2023-02-20T07:24:26.820Z,3.07
2023-02-20T07:29:20.177Z,5.53
2023-02-20T07:31:47.255Z,4.27
2023-02-20T07:34:14.195Z,3.47
2023-02-20T07:36:42.610Z,4.77
2023-02-20T07:39:13.444Z,10.00
2023-02-20T07:41:41.168Z,7.70
2023-02-20T07:44:08.357Z,6.40
2023-02-20T07:46:35.496Z,5.00
2023-02-20T07:49:04.990Z,4.87
2023-02-20T07:51:33.147Z,10.63
2023-02-20T07:54:00.122Z,4.90
2023-02-20T07:56:27.333Z,4.20
2023-02-20T07:58:54.680Z,3.97
2023-02-20T08:01:21.745Z,8.50
2023-02-20T08:03:48.910Z,3.20
2023-02-20T08:06:20.751Z,4.93
2023-02-20T08:08:50.522Z,3.20
2023-02-20T08:11:19.829Z,3.57
2023-02-20T08:13:47.146Z,3.30
2023-02-20T08:16:14.758Z,5.57
2023-02-20T08:18:42.054Z,4.37
2023-02-20T08:21:09.305Z,3.53
2023-02-20T08:23:36.414Z,4.53
2023-02-20T08:26:05.512Z,3.17
2023-02-20T08:28:32.537Z,3.90
2023-02-20T08:30:59.750Z,5.00
2023-02-20T08:33:26.812Z,2.80
2023-02-20T08:35:55.546Z,3.10
2023-02-20T08:38:42.850Z,3.33
2023-02-20T08:41:13.536Z,3.10
2023-02-20T08:43:43.812Z,5.33
2023-02-20T08:46:12.101Z,3.13
2023-02-20T08:48:39.613Z,3.10
2023-02-20T08:51:07.607Z,3.00
2023-02-20T08:53:35.936Z,3.50
2023-02-20T08:56:02.973Z,3.17
2023-02-20T08:58:30.029Z,3.07
2023-02-20T09:00:57.015Z,3.87
2023-02-20T09:03:24.683Z,3.43
2023-02-20T09:05:51.685Z,4.83
2023-02-20T09:08:18.672Z,3.20
2023-02-20T09:10:46.019Z,2.43
2023-02-20T09:13:13.500Z,5.27
2023-02-20T09:15:40.849Z,4.80
2023-02-20T09:18:12.714Z,4.90
2023-02-20T09:20:40.407Z,4.37
2023-02-20T09:23:08.001Z,4.57
2023-02-20T09:25:36.213Z,3.70
2023-02-20T09:28:03.489Z,6.17
2023-02-20T09:30:30.566Z,4.40
2023-02-20T09:32:57.575Z,3.60
2023-02-20T09:35:30.016Z,2.93
2023-02-20T09:37:57.726Z,4.33
2023-02-20T09:40:29.401Z,6.53
2023-02-20T09:43:31.157Z,2.73
2023-02-20T09:46:14.374Z,3.13
2023-02-20T09:48:50.947Z,7.17
2023-02-20T09:51:22.586Z,3.83
2023-02-20T09:54:24.813Z,3.80
2023-02-20T09:57:00.013Z,4.40
2023-02-20T09:59:42.057Z,4.93
2023-02-20T10:02:30.939Z,3.17
2023-02-20T10:05:04.741Z,3.77
2023-02-20T10:07:38.721Z,7.40
2023-02-20T10:10:39.593Z,7.67
2023-02-20T10:13:35.148Z,4.17
2023-02-20T10:16:37.171Z,2.93
2023-02-20T10:19:29.449Z,2.53
2023-02-20T10:22:13.222Z,3.10
2023-02-20T10:24:42.618Z,3.73
2023-02-20T10:27:17.629Z,7.77
2023-02-20T10:29:46.354Z,2.77
2023-02-20T10:32:22.404Z,5.03
2023-02-20T10:35:03.091Z,3.80
2023-02-20T10:37:47.415Z,3.50
2023-02-20T10:40:33.226Z,5.77
2023-02-20T10:43:10.604Z,7.37
2023-02-20T10:46:15.976Z,2.80
2023-02-20T10:48:45.572Z,5.47
2023-02-20T10:51:44.111Z,3.53
2023-02-20T10:54:21.862Z,2.93
2023-02-20T10:57:04.883Z,2.50
2023-02-20T10:59:52.122Z,2.73
2023-02-20T11:02:25.939Z,4.70
2023-02-20T11:04:59.908Z,3.20
2023-02-20T11:07:27.131Z,2.43
2023-02-20T11:09:54.199Z,3.47
2023-02-20T11:12:50.451Z,2.80
2023-02-20T11:15:23.734Z,5.60
2023-02-20T11:17:53.783Z,3.10
2023-02-20T11:20:47.857Z,2.57
2023-02-20T11:23:56.020Z,2.67
2023-02-20T11:26:32.303Z,6.57
2023-02-20T11:29:21.972Z,2.90
2023-02-20T11:31:50.035Z,3.30
2023-02-20T11:34:27.680Z,6.43
2023-02-20T11:37:05.391Z,3.20
2023-02-20T11:39:34.714Z,5.30
2023-02-20T11:42:12.923Z,2.80
2023-02-20T11:44:40.035Z,2.50
2023-02-20T11:47:30.061Z,2.60
2023-02-20T11:50:20.463Z,2.77
2023-02-20T11:53:05.230Z,2.37
2023-02-20T11:55:32.782Z,2.87
2023-02-20T11:57:59.899Z,2.80
2023-02-20T12:00:30.559Z,2.53
2023-02-20T12:03:08.596Z,3.13
2023-02-20T12:05:48.544Z,3.17
2023-02-20T12:08:53.859Z,4.80
2023-02-20T12:11:26.291Z,3.00
2023-02-20T12:13:58.507Z,3.60
2023-02-20T12:16:38.543Z,2.77
2023-02-20T12:19:34.894Z,2.30
2023-02-20T12:22:35.461Z,2.33
2023-02-20T12:25:27.151Z,2.27
2023-02-20T12:28:14.195Z,2.43
2023-02-20T12:31:00.320Z,4.90
2023-02-20T12:33:50.758Z,2.53
2023-02-20T12:36:41.176Z,2.60
2023-02-20T12:39:20.772Z,2.63
2023-02-20T12:42:26.942Z,2.23
2023-02-20T12:45:21.444Z,2.20
2023-02-20T12:48:01.436Z,2.30
2023-02-20T12:50:42.227Z,1.60
2023-02-20T12:54:00.741Z,2.10
2023-02-20T12:56:54.714Z,2.20
2023-02-20T12:59:50.540Z,2.40
2023-02-20T13:02:48.559Z,2.10
2023-02-20T13:05:23.069Z,2.90
2023-02-20T13:08:15.243Z,3.47
2023-02-20T13:10:57.044Z,2.40
2023-02-20T13:13:29.162Z,5.10
2023-02-20T13:16:05.391Z,2.50
2023-02-20T13:18:49.020Z,1.77
2023-02-20T13:21:23.519Z,2.70
2023-02-20T13:23:53.494Z,2.20
2023-02-20T13:26:46.969Z,2.60
2023-02-20T13:29:24.829Z,2.20
2023-02-20T13:32:22.123Z,3.73
2023-02-20T13:34:49.223Z,1.87
2023-02-20T13:37:36.817Z,1.73
2023-02-20T13:40:28.497Z,2.57
2023-02-20T13:43:15.702Z,1.83
2023-02-20T13:45:45.799Z,2.40
2023-02-20T13:48:29.273Z,2.20
2023-02-20T13:51:14.815Z,2.77
2023-02-20T13:53:52.554Z,2.07
2023-02-20T13:56:43.808Z,1.80
2023-02-20T13:59:18.375Z,2.27
2023-02-20T14:02:30.539Z,2.53
2023-02-20T14:04:59.188Z,1.63
2023-02-20T14:07:44.002Z,2.40
2023-02-20T14:10:32.643Z,6.63
2023-02-20T14:13:14.271Z,2.20
2023-02-20T14:16:01.557Z,2.30
2023-02-20T14:18:35.232Z,5.53
2023-02-20T14:21:20.823Z,1.90
2023-02-20T14:23:49.633Z,2.23
2023-02-20T14:26:28.243Z,1.40
2023-02-20T14:28:59.174Z,1.90
2023-02-20T14:31:37.757Z,2.30
2023-02-20T14:34:13.303Z,2.20
2023-02-20T14:36:59.543Z,1.20
2023-02-20T14:39:44.761Z,2.53
2023-02-20T14:42:18.869Z,1.90
2023-02-20T14:45:00.711Z,1.97
2023-02-20T14:47:27.793Z,1.87
2023-02-20T14:49:54.818Z,3.07
2023-02-20T14:52:27.445Z,1.93
2023-02-20T14:55:07.265Z,2.30
2023-02-20T14:57:34.972Z,2.70
2023-02-20T15:00:17.042Z,2.00
2023-02-20T15:02:49.460Z,3.40
2023-02-20T15:05:28.228Z,2.67
2023-02-20T15:08:03.903Z,2.10
2023-02-20T15:10:42.147Z,2.60
2023-02-20T15:13:16.088Z,1.43
2023-02-20T15:16:07.631Z,2.33
2023-02-20T15:18:43.389Z,2.50
2023-02-20T15:21:16.215Z,2.63
2023-02-20T15:23:45.590Z,1.87
2023-02-20T15:26:37.504Z,1.60
2023-02-20T15:29:22.550Z,3.20
2023-02-20T15:31:58.206Z,1.80
2023-02-20T15:34:31.733Z,3.43
2023-02-20T15:36:59.567Z,1.83
2023-02-20T15:39:27.177Z,2.03
2023-02-20T15:44:22.424Z,3.53
2023-02-20T15:46:50.496Z,3.13
2023-02-20T15:49:20.911Z,4.50
2023-02-20T15:51:52.451Z,2.40
2023-02-20T15:54:22.173Z,1.93
2023-02-20T15:56:49.312Z,2.47
2023-02-20T15:59:17.015Z,3.67
2023-02-20T16:01:44.051Z,1.50
2023-02-20T16:04:15.945Z,3.30
2023-02-20T16:06:44.562Z,1.80
2023-02-20T16:09:12.296Z,2.77
2023-02-20T16:11:46.723Z,2.73
2023-02-20T16:14:17.207Z,2.70
2023-02-20T16:16:51.653Z,4.20
2023-02-20T16:19:33.404Z,6.77
2023-02-20T16:22:09.516Z,3.23
2023-02-20T16:24:36.661Z,1.97
2023-02-20T16:27:07.656Z,1.93
2023-02-20T16:29:39.615Z,1.83
2023-02-20T16:32:06.551Z,3.70
2023-02-20T16:34:34.157Z,2.80
2023-02-20T16:37:03.408Z,2.47
2023-02-20T16:39:30.391Z,2.80
2023-02-20T16:41:59.351Z,4.80
2023-02-20T16:44:39.176Z,10.70
2023-02-20T16:47:10.114Z,8.40
2023-02-20T16:49:39.539Z,9.37
2023-02-20T16:52:39.001Z,7.83
2023-02-20T16:55:19.129Z,5.13
2023-02-20T16:57:46.080Z,6.17
2023-02-20T17:00:19.404Z,6.90
2023-02-20T17:02:47.582Z,6.30
2023-02-20T17:05:15.223Z,8.70
2023-02-20T17:07:42.381Z,5.90
2023-02-20T17:10:10.223Z,7.53
2023-02-20T17:12:37.529Z,8.17
2023-02-20T17:15:07.279Z,7.50
2023-02-20T17:17:35.019Z,6.63
2023-02-20T17:20:02.759Z,9.70
2023-02-20T17:22:30.042Z,7.70
2023-02-20T17:24:59.031Z,5.77
2023-02-20T17:27:26.015Z,5.97
2023-02-20T17:29:53.163Z,6.37
2023-02-20T17:32:20.102Z,9.33
2023-02-20T17:34:47.176Z,10.20
2023-02-20T17:37:16.364Z,6.67
2023-02-20T17:39:43.298Z,5.17
2023-02-20T17:42:12.775Z,7.63
2023-02-20T17:44:40.752Z,5.07
2023-02-20T17:47:10.740Z,5.50
2023-02-20T17:49:41.123Z,8.10
2023-02-20T17:52:10.252Z,4.87
2023-02-20T17:54:37.513Z,5.90
2023-02-20T17:57:04.656Z,7.90
2023-02-20T17:59:31.634Z,6.93
2023-02-20T18:01:58.696Z,6.07
2023-02-20T18:04:25.995Z,6.20
2023-02-20T18:06:54.536Z,7.00
2023-02-20T18:09:22.003Z,8.70
2023-02-20T18:11:49.820Z,7.37
2023-02-20T18:14:17.912Z,8.03
2023-02-20T18:16:46.712Z,8.47
2023-02-20T18:19:15.300Z,6.20
2023-02-20T18:21:43.385Z,7.13
2023-02-20T18:24:11.864Z,6.67
2023-02-20T18:26:39.057Z,7.13
2023-02-20T18:29:06.174Z,6.77
2023-02-20T18:31:34.466Z,6.60
2023-02-20T18:34:02.211Z,7.17
2023-02-20T18:36:32.753Z,8.00
2023-02-20T18:38:59.984Z,7.00
2023-02-20T18:41:27.323Z,5.87
2023-02-20T18:43:54.267Z,4.93
2023-02-20T18:46:37.133Z,4.47
2023-02-20T18:49:04.815Z,2.30
2023-02-20T18:51:36.951Z,2.70
2023-02-20T18:54:11.645Z,2.90
2023-02-20T18:56:39.186Z,3.00
2023-02-20T18:59:06.205Z,6.30
2023-02-20T19:01:34.267Z,3.40
2023-02-20T19:04:14.545Z,3.00
2023-02-20T19:06:47.960Z,3.47
2023-02-20T19:09:24.117Z,3.70
2023-02-20T19:11:58.074Z,3.77
2023-02-20T19:14:28.832Z,4.30
2023-02-20T19:16:59.897Z,5.33
2023-02-20T19:19:30.817Z,4.83
2023-02-20T19:21:59.108Z,5.20
2023-02-20T19:24:26.397Z,5.40
2023-02-20T19:26:53.629Z,6.73
2023-02-20T19:29:20.924Z,5.57
2023-02-20T19:31:48.485Z,4.23
2023-02-20T19:34:16.348Z,4.53
2023-02-20T19:36:44.486Z,4.57
2023-02-20T19:39:15.123Z,3.90
2023-02-20T19:41:42.250Z,4.23
2023-02-20T19:44:17.032Z,4.40
2023-02-20T19:46:44.892Z,4.73
2023-02-20T19:49:13.136Z,4.03
2023-02-20T19:51:47.137Z,3.43
2023-02-20T19:54:19.762Z,3.83
2023-02-20T19:56:53.892Z,5.80
2023-02-20T19:59:22.617Z,4.10
2023-02-20T20:01:52.886Z,6.57
2023-02-20T20:04:22.973Z,5.40
2023-02-20T20:06:50.307Z,4.30
2023-02-20T20:09:35.195Z,4.33
2023-02-20T20:12:03.376Z,4.27
2023-02-20T20:14:30.394Z,4.20
2023-02-20T20:16:57.434Z,4.50
2023-02-20T20:19:24.398Z,6.50
2023-02-20T20:21:51.587Z,4.77
2023-02-20T20:24:19.398Z,5.47
2023-02-20T20:26:47.446Z,4.63
2023-02-20T20:29:14.411Z,8.10
2023-02-20T20:31:42.492Z,4.10
2023-02-20T20:34:09.929Z,5.33
2023-02-20T20:36:46.124Z,5.47
2023-02-20T20:39:22.741Z,7.13
2023-02-20T20:41:57.178Z,5.57
2023-02-20T20:44:28.031Z,5.87
2023-02-20T20:46:56.711Z,6.43
2023-02-20T20:49:24.228Z,5.90
2023-02-20T20:51:52.535Z,5.47
2023-02-20T20:54:19.911Z,5.90
2023-02-20T20:56:51.402Z,7.23
2023-02-20T20:59:18.697Z,9.10
2023-02-20T21:01:46.182Z,6.40
2023-02-20T21:04:13.602Z,10.10
2023-02-20T21:06:40.563Z,11.10
2023-02-20T21:09:07.574Z,8.93
2023-02-20T21:11:35.547Z,7.93
2023-02-20T21:14:03.188Z,7.30
2023-02-20T21:16:30.164Z,5.70
2023-02-20T21:18:57.295Z,6.63
2023-02-20T21:21:29.957Z,5.60
2023-02-20T21:23:57.122Z,4.77
2023-02-20T21:26:24.958Z,7.27
2023-02-20T21:28:54.892Z,5.93
2023-02-20T21:31:22.900Z,5.83
2023-02-20T21:33:54.675Z,5.70
2023-02-20T21:36:22.484Z,5.63
2023-02-20T21:38:49.522Z,8.00
2023-02-20T21:41:42.686Z,9.70
2023-02-20T21:44:29.372Z,6.57
2023-02-20T21:47:00.902Z,9.00
2023-02-20T21:49:30.783Z,9.70
2023-02-20T21:51:58.911Z,8.77
2023-02-20T21:54:31.305Z,8.93
2023-02-20T21:56:59.774Z,13.13
2023-02-20T21:59:27.214Z,15.70
2023-02-20T22:01:54.277Z,13.17
2023-02-20T22:04:22.525Z,13.93
2023-02-20T22:07:09.218Z,9.67
2023-02-20T22:09:56.004Z,12.47
2023-02-20T22:12:41.493Z,11.17
2023-02-20T22:15:27.955Z,13.27
2023-02-20T22:18:13.561Z,9.80
2023-02-20T22:20:59.242Z,11.30
2023-02-20T22:23:44.760Z,8.57
2023-02-20T22:26:35.153Z,8.70
2023-02-20T22:29:21.024Z,8.43
2023-02-20T22:32:06.869Z,10.50
2023-02-20T22:35:02.243Z,7.43
2023-02-20T22:37:54.954Z,9.87
2023-02-20T22:40:41.337Z,8.17
2023-02-20T22:43:26.720Z,6.37
2023-02-20T22:46:12.239Z,5.63
2023-02-20T22:48:58.071Z,5.50
2023-02-20T22:51:43.581Z,6.53
2023-02-20T22:54:29.490Z,6.70
2023-02-20T22:57:15.982Z,4.10
2023-02-20T23:00:02.729Z,5.40
2023-02-20T23:02:49.175Z,4.27
2023-02-20T23:05:34.617Z,4.40
2023-02-20T23:08:20.286Z,3.63
2023-02-20T23:11:06.040Z,4.43
2023-02-20T23:13:51.543Z,4.50
2023-02-20T23:16:42.423Z,4.43
2023-02-20T23:19:29.409Z,3.97
2023-02-20T23:22:15.296Z,3.87
2023-02-20T23:25:01.023Z,3.90
2023-02-20T23:27:46.882Z,5.23
2023-02-20T23:30:33.734Z,4.10
2023-02-20T23:33:19.674Z,2.60
2023-02-20T23:36:05.470Z,3.40
2023-02-20T23:38:51.389Z,5.63
2023-02-20T23:41:37.144Z,3.20
2023-02-20T23:44:25.776Z,5.70
2023-02-20T23:47:11.316Z,3.10
2023-02-20T23:49:56.893Z,5.60
2023-02-20T23:52:42.802Z,2.70
2023-02-20T23:55:28.450Z,3.83
2023-02-20T23:58:14.187Z,3.53
